Grant, Oklahoma
Current Conditions -  °F | °C
As of 3:35 AM on Thursday 23 Oct 2014 (Local Time) from KHHW Reporting Station
Haze Haze  
Wind Chill: 60°   Ceiling: Unl
Heat Index: 60°   Visibility: 2.5mi
Dew Point: 53°   Wind: 3mph
Humidity: 79%   Direction: 130°SE
Pressure: 30.15"   Gusts: NA
Location:  33.94°N, 95.51°W
Report Text: KHHW 230835Z AUTO 13003KT 2 1/2SM HZ CLR 16/12 A3015 RMK AO2 T01560119
Loading
Personal Weather Stations






























Interactive Weather Map
Tropical Storm Tracking
New forecast layout! Learn more

10-Day Weather Forecast

Advertisements
Track Severe Weather on mobile